createdAt,value
2024-01-15T00:00:50.701Z,55.652
2024-01-15T00:05:59.799Z,51.206
2024-01-15T00:10:49.321Z,52.663
2024-01-15T00:15:53.795Z,52.236
2024-01-15T00:25:54.272Z,46.64
2024-01-15T00:30:57.381Z,57.322
2024-01-15T00:35:54.845Z,49.651
2024-01-15T00:40:56.813Z,47.929
2024-01-15T00:45:54.781Z,57.051
2024-01-15T00:50:59.740Z,56.916
2024-01-15T00:55:54.288Z,51.773
2024-01-15T01:00:59.258Z,47.111
2024-01-15T01:05:54.256Z,50.236
2024-01-15T01:10:52.851Z,52.29
2024-01-15T01:15:52.160Z,49.6
2024-01-15T01:20:53.623Z,57.759
2024-01-15T01:25:50.157Z,61.394
2024-01-15T01:30:57.543Z,51.716
2024-01-15T01:35:55.419Z,55.81
2024-01-15T01:40:52.580Z,57.066
2024-01-15T01:45:58.869Z,54.813
2024-01-15T01:50:56.219Z,57.678
2024-01-15T01:55:53.177Z,48.065
2024-01-15T02:00:53.744Z,54.03
2024-01-15T02:05:57.820Z,55.009
2024-01-15T02:10:53.674Z,59.964
2024-01-15T02:15:57.521Z,62.608
2024-01-15T02:20:52.526Z,59.726
2024-01-15T02:25:52.869Z,69.492
2024-01-15T02:30:55.221Z,57.438
2024-01-15T02:35:55.446Z,65.597
2024-01-15T02:40:56.395Z,64.928
2024-01-15T02:45:56.023Z,63.837
2024-01-15T02:50:50.287Z,62.57
2024-01-15T02:55:55.161Z,54.466
2024-01-15T03:00:56.101Z,63.469
2024-01-15T03:05:54.315Z,65.12
2024-01-15T03:10:51.877Z,72.445
2024-01-15T03:15:55.112Z,59.731
2024-01-15T03:20:53.751Z,59.916
2024-01-15T03:25:54.994Z,65.191
2024-01-15T03:30:52.283Z,60.815
2024-01-15T03:35:56.007Z,62.602
2024-01-15T03:40:54.459Z,57.326
2024-01-15T03:45:55.120Z,59.043
2024-01-15T03:50:54.241Z,68.935
2024-01-15T03:55:53.773Z,56.904
2024-01-15T04:00:56.612Z,61.481
2024-01-15T04:05:54.489Z,62.591
2024-01-15T04:10:50.147Z,65.678
2024-01-15T04:15:53.645Z,65.484
2024-01-15T04:20:49.119Z,61.941
2024-01-15T04:25:50.164Z,54.992
2024-01-15T04:30:51.645Z,61.866
2024-01-15T04:35:53.041Z,38.25
2024-01-15T04:40:59.874Z,21.289
2024-01-15T04:45:58.208Z,15.777
2024-01-15T04:50:53.761Z,13.208
2024-01-15T04:55:53.028Z,18.132
2024-01-15T05:00:52.453Z,13.431
2024-01-15T05:05:52.568Z,12.033
2024-01-15T05:10:51.940Z,13.485
2024-01-15T05:15:53.363Z,15.716
2024-01-15T05:20:56.895Z,16.799
2024-01-15T05:25:57.443Z,18.261
2024-01-15T05:30:57.240Z,12.526
2024-01-15T05:35:52.477Z,14.98
2024-01-15T05:40:52.559Z,17.845
2024-01-15T05:45:49.266Z,14.502
2024-01-15T05:50:53.276Z,10.787
2024-01-15T05:55:50.458Z,13.268
2024-01-15T06:00:55.778Z,12.174
2024-01-15T06:05:54.678Z,16.659
2024-01-15T06:10:52.113Z,10.239
2024-01-15T06:15:51.852Z,13.198
2024-01-15T06:20:59.676Z,13.041
2024-01-15T06:25:52.115Z,12.478
2024-01-15T06:31:00.266Z,15.548
2024-01-15T06:35:53.677Z,15.982
2024-01-15T06:40:59.777Z,12.201
2024-01-15T06:45:59.561Z,13.16
2024-01-15T06:50:58.291Z,12.867
2024-01-15T06:56:00.441Z,11.822
2024-01-15T07:01:01.115Z,10.283
2024-01-15T07:05:56.862Z,10.045
2024-01-15T07:10:56.796Z,11.675
2024-01-15T07:16:01.095Z,8.578
2024-01-15T07:21:00.528Z,11.946
2024-01-15T07:25:55.014Z,9.823
2024-01-15T07:30:58.879Z,17.927
2024-01-15T07:36:10.578Z,10.987
2024-01-15T07:40:57.338Z,9.878
2024-01-15T07:46:04.506Z,12.071
2024-01-15T07:50:59.340Z,12.186
2024-01-15T07:55:57.306Z,13.961
2024-01-15T08:01:01.532Z,11.291
2024-01-15T08:05:53.521Z,11.985
2024-01-15T08:10:50.807Z,10.971
2024-01-15T08:15:56.992Z,10.203
2024-01-15T08:20:55.971Z,10.689
2024-01-15T08:25:56.584Z,9.704
2024-01-15T08:31:04.420Z,6.676
2024-01-15T08:36:01.385Z,11.584
2024-01-15T08:40:55.366Z,9.725
2024-01-15T08:45:57.577Z,14.351
2024-01-15T08:50:59.756Z,9.586
2024-01-15T08:55:55.669Z,8.578
2024-01-15T09:01:01.519Z,11.216
2024-01-15T09:05:59.926Z,7.803
2024-01-15T09:11:02.837Z,9.303
2024-01-15T09:16:00.586Z,10.083
2024-01-15T09:20:55.299Z,10.425
2024-01-15T09:25:58.773Z,7.479
2024-01-15T09:30:58.556Z,11.058
2024-01-15T09:35:59.434Z,13.354
2024-01-15T09:41:00.904Z,11.399
2024-01-15T09:45:54.841Z,16.421
2024-01-15T09:51:00.437Z,12.267
2024-01-15T09:55:55.943Z,7.04
2024-01-15T10:01:10.638Z,8.176
2024-01-15T10:05:56.775Z,5.935
2024-01-15T10:10:55.447Z,7.218
2024-01-15T10:16:00.859Z,5.968
2024-01-15T10:20:53.583Z,8.838
2024-01-15T10:26:07.701Z,8.204
2024-01-15T10:31:04.837Z,6.486
2024-01-15T10:35:59.240Z,5.403
2024-01-15T10:40:59.871Z,8.615
2024-01-15T10:45:58.423Z,6.151
2024-01-15T10:50:58.203Z,5.458
2024-01-15T10:56:01.817Z,5.789
2024-01-15T11:01:00.040Z,8.94
2024-01-15T11:05:58.415Z,5.349
2024-01-15T11:10:54.243Z,6.265
2024-01-15T11:16:00.303Z,4.201
2024-01-15T11:20:58.696Z,5.316
2024-01-15T11:25:57.304Z,6.986
2024-01-15T11:31:04.246Z,4.857
2024-01-15T11:35:57.736Z,7.353
2024-01-15T11:40:51.917Z,6.53
2024-01-15T11:45:59.745Z,7.202
2024-01-15T11:50:55.221Z,2.576
2024-01-15T11:56:01.127Z,5.523
2024-01-15T12:00:58.808Z,5.983
2024-01-15T12:06:03.114Z,5.955
2024-01-15T12:11:03.542Z,5.955
2024-01-15T12:15:54.316Z,11.805
2024-01-15T12:20:59.590Z,4.781
2024-01-15T12:26:04.396Z,6.459
2024-01-15T12:31:05.009Z,5.289
2024-01-15T12:35:59.618Z,5.967
2024-01-15T12:40:59.935Z,5.383
2024-01-15T12:45:58.063Z,5.772
2024-01-15T12:50:53.067Z,4.635
2024-01-15T12:55:53.286Z,6.215
2024-01-15T13:01:03.896Z,4.233
2024-01-15T13:05:57.158Z,6.752
2024-01-15T13:10:54.721Z,9.915
2024-01-15T13:16:05.042Z,4.933
2024-01-15T13:20:58.993Z,6.167
2024-01-15T13:25:58.842Z,7.9
2024-01-15T13:30:57.104Z,6.394
2024-01-15T13:35:58.423Z,9.151
2024-01-15T13:41:01.380Z,7.7
2024-01-15T13:45:57.602Z,6.904
2024-01-15T13:50:56.307Z,9.19
2024-01-15T13:55:55.833Z,11.53
2024-01-15T14:01:02.674Z,6.27
2024-01-15T14:05:58.865Z,8.48
2024-01-15T14:10:53.507Z,7.717
2024-01-15T14:15:58.436Z,6.135
2024-01-15T14:20:56.527Z,6.255
2024-01-15T14:26:04.623Z,5.062
2024-01-15T14:30:57.511Z,6.687
2024-01-15T14:35:59.795Z,5.55
2024-01-15T14:41:00.174Z,9.763
2024-01-15T14:45:58.299Z,12.039
2024-01-15T14:50:53.300Z,7.608
2024-01-15T14:55:59.757Z,5.728
2024-01-15T15:01:00.632Z,6.076
2024-01-15T15:05:56.064Z,5.248
2024-01-15T15:10:59.583Z,9.765
2024-01-15T15:15:57.277Z,6.032
2024-01-15T15:21:01.852Z,11.521
2024-01-15T15:25:52.575Z,3.908
2024-01-15T15:30:55.238Z,6.53
2024-01-15T15:35:59.327Z,4.586
2024-01-15T15:40:58.100Z,4.639
2024-01-15T15:45:53.684Z,5.451
2024-01-15T15:50:51.591Z,4.44
2024-01-15T15:55:59.084Z,4.25
2024-01-15T16:00:52.376Z,7.435
2024-01-15T16:06:01.840Z,5.176
2024-01-15T16:10:52.306Z,4.689
2024-01-15T16:15:48.959Z,5.94
2024-01-15T16:24:52.906Z,2.712
2024-01-15T16:31:11.434Z,5.231
2024-01-15T16:35:54.050Z,8.457
2024-01-15T16:40:52.021Z,8.512
2024-01-15T16:45:55.262Z,6.422
2024-01-15T16:50:56.849Z,3.709
2024-01-15T16:55:56.186Z,6.021
2024-01-15T17:00:51.148Z,6.492
2024-01-15T17:05:56.991Z,7.429
2024-01-15T17:10:50.712Z,8.517
2024-01-15T17:15:52.720Z,7.365
2024-01-15T17:20:54.394Z,9.059
2024-01-15T17:25:55.638Z,12.992
2024-01-15T17:30:56.985Z,12.163
2024-01-15T17:35:54.415Z,8.019
2024-01-15T17:40:55.121Z,6.931
2024-01-15T17:45:49.913Z,6.394
2024-01-15T17:50:49.282Z,5.122
2024-01-15T17:55:55.367Z,4.759
2024-01-15T18:01:01.134Z,6.746
2024-01-15T18:05:54.387Z,5.014
2024-01-15T18:10:52.111Z,5.008
2024-01-15T18:15:49.336Z,9.498
2024-01-15T18:25:54.651Z,18.457
2024-01-15T18:34:56.630Z,9.255
2024-01-15T18:40:53.061Z,8.285
2024-01-15T18:45:52.123Z,6.942
2024-01-15T18:50:58.392Z,16.664
2024-01-15T18:55:50.083Z,9.488
2024-01-15T19:00:50.232Z,9.102
2024-01-15T19:05:50.729Z,5.078
2024-01-15T19:10:55.642Z,3.822
2024-01-15T19:15:54.731Z,3.98
2024-01-15T19:20:52.415Z,2.869
2024-01-15T19:25:51.172Z,4.554
2024-01-15T19:30:47.616Z,5.224
2024-01-15T19:35:52.411Z,5.832
2024-01-15T19:40:51.963Z,6.54
2024-01-15T19:45:57.489Z,3.659
2024-01-15T19:50:56.055Z,5.37
2024-01-15T19:55:55.169Z,5.22
2024-01-15T20:00:53.703Z,3.226
2024-01-15T20:05:56.250Z,2.576
2024-01-15T20:10:48.402Z,2.706
2024-01-15T20:15:52.231Z,3.925
2024-01-15T20:21:00.189Z,3.416
2024-01-15T20:25:59.932Z,3.493
2024-01-15T20:30:57.004Z,2.571
2024-01-15T20:35:50.926Z,3.773
2024-01-15T20:40:54.637Z,6.427
2024-01-15T20:45:54.876Z,3.547
2024-01-15T20:50:58.248Z,4.147
2024-01-15T20:55:51.994Z,3.259
2024-01-15T21:05:57.848Z,4.332
2024-01-15T21:10:53.874Z,7.083
2024-01-15T21:15:51.883Z,6.405
2024-01-15T21:20:54.278Z,3.777
2024-01-15T21:25:58.644Z,3.514
2024-01-15T21:30:56.139Z,1.498
2024-01-15T21:36:00.789Z,2.604
2024-01-15T21:40:53.855Z,4.115
2024-01-15T21:46:03.587Z,3.709
2024-01-15T21:51:01.333Z,4.923
2024-01-15T21:56:01.369Z,4.338
2024-01-15T22:00:51.549Z,4.7
2024-01-15T22:06:03.890Z,2.875
2024-01-15T22:10:55.945Z,4.699
2024-01-15T22:15:56.444Z,3.507
2024-01-15T22:20:56.771Z,5.842
2024-01-15T22:25:58.483Z,4.456
2024-01-15T22:30:51.328Z,4.224
2024-01-15T22:35:55.126Z,4.883
2024-01-15T22:40:49.656Z,3.687
2024-01-15T22:45:56.749Z,4.716
2024-01-15T22:50:52.993Z,5.577
2024-01-15T22:55:49.475Z,4.916
2024-01-15T23:01:50.537Z,4.645
2024-01-15T23:05:59.039Z,5.28
2024-01-15T23:10:58.383Z,3.259
2024-01-15T23:15:53.523Z,4.65
2024-01-15T23:21:00.386Z,4.748
2024-01-15T23:26:01.945Z,7.375
2024-01-15T23:30:54.941Z,6.238
2024-01-15T23:35:50.694Z,6.877
2024-01-15T23:40:56.107Z,5.572
2024-01-15T23:46:15.782Z,5.897
2024-01-15T23:50:58.025Z,5.376
2024-01-15T23:55:59.119Z,4.304
